Time;durP1;ratioP1;P1;durP2;ratioP2;P2;SDS_P1;SDS_P2;PMS_P1;PMS_P2;Temp;Humidity;BMP_temperature;BMP_pressure;BME280_temperature;BME280_humidity;BME280_pressure;Samples;Min_cycle;Max_cycle;Signal;HPM_P1;HPM_P2
2021/06/21 00:00:54;;;;;;;5.28;3.97;;;22.60;99.90;;;;;;5072502;28;20032;-71
2021/06/21 00:03:20;;;;;;;6.97;4.47;;;22.60;99.90;;;;;;5072856;28;20071;-71
2021/06/21 00:05:46;;;;;;;4.90;4.32;;;22.60;99.90;;;;;;5072191;28;20501;-70
2021/06/21 00:08:12;;;;;;;4.90;4.47;;;22.60;99.90;;;;;;5072438;28;20028;-70
2021/06/21 00:10:38;;;;;;;6.72;4.60;;;22.60;99.90;;;;;;5071156;28;20039;-71
2021/06/21 00:13:04;;;;;;;4.93;4.32;;;22.60;99.90;;;;;;5072453;28;20035;-72
2021/06/21 00:15:30;;;;;;;6.28;4.43;;;22.60;99.90;;;;;;5071126;28;20036;-71
2021/06/21 00:17:56;;;;;;;4.68;4.28;;;22.60;99.90;;;;;;5071931;28;20082;-71
2021/06/21 00:20:23;;;;;;;6.45;4.50;;;22.60;99.90;;;;;;5072360;28;20020;-71
2021/06/21 00:22:51;;;;;;;5.50;4.30;;;22.60;99.90;;;;;;5072536;28;20043;-71
2021/06/21 00:25:17;;;;;;;4.78;4.05;;;22.60;99.90;;;;;;5072105;28;20021;-71
2021/06/21 00:27:43;;;;;;;5.30;4.20;;;22.60;99.90;;;;;;5070483;28;20123;-71
2021/06/21 00:30:11;;;;;;;4.80;4.10;;;22.60;99.90;;;;;;5072060;28;20100;-72
2021/06/21 00:32:41;;;;;;;5.57;4.35;;;22.60;99.90;;;;;;5071772;28;20028;-71
2021/06/21 00:35:08;;;;;;;4.85;4.35;;;22.60;99.90;;;;;;5071821;28;20021;-71
2021/06/21 00:37:35;;;;;;;5.10;3.80;;;22.50;99.90;;;;;;5071687;28;20032;-72
2021/06/21 00:40:01;;;;;;;5.00;4.05;;;22.60;99.90;;;;;;5071887;28;20063;-73
2021/06/21 00:42:27;;;;;;;5.90;4.07;;;22.60;99.90;;;;;;5071672;28;20099;-71
2021/06/21 00:44:52;;;;;;;4.57;3.95;;;22.60;99.90;;;;;;5072143;28;20480;-72
2021/06/21 00:47:18;;;;;;;5.72;4.13;;;22.60;99.90;;;;;;5071215;28;20029;-71
2021/06/21 00:49:44;;;;;;;4.13;3.70;;;22.60;99.90;;;;;;5071077;28;20389;-71
2021/06/21 00:52:16;;;;;;;4.90;3.80;;;22.60;99.90;;;;;;5071773;28;20021;-71
2021/06/21 00:54:42;;;;;;;6.22;3.78;;;22.60;99.90;;;;;;5071698;28;20082;-72
2021/06/21 00:57:08;;;;;;;5.35;3.95;;;22.50;99.90;;;;;;5071635;28;20020;-72
2021/06/21 00:59:34;;;;;;;4.22;3.83;;;22.60;99.90;;;;;;5071392;28;20024;-71
2021/06/21 01:02:00;;;;;;;5.25;3.80;;;22.50;99.90;;;;;;5071564;28;20396;-72
2021/06/21 01:04:26;;;;;;;6.20;4.30;;;22.50;99.90;;;;;;5071308;28;20396;-71
2021/06/21 01:06:51;;;;;;;4.05;3.55;;;22.60;99.90;;;;;;5071845;28;20036;-72
2021/06/21 01:09:17;;;;;;;5.28;4.00;;;22.50;99.90;;;;;;5071343;28;20471;-73
2021/06/21 01:11:55;;;;;;;4.90;3.65;;;22.60;99.90;;;;;;5071364;28;20025;-72
2021/06/21 01:14:33;;;;;;;4.30;3.50;;;22.60;99.90;;;;;;5071144;28;20021;-72
2021/06/21 01:17:01;;;;;;;5.03;4.22;;;22.50;99.90;;;;;;5071454;28;20029;-73
2021/06/21 01:19:41;;;;;;;4.57;3.45;;;22.60;99.90;;;;;;5071159;28;20024;-73
2021/06/21 01:22:35;;;;;;;4.30;3.38;;;22.50;99.90;;;;;;5071038;28;20039;-72
2021/06/21 01:25:35;;;;;;;5.97;3.60;;;22.50;99.90;;;;;;5071317;28;20488;-72
2021/06/21 01:28:06;;;;;;;5.07;3.35;;;22.50;99.90;;;;;;5035965;28;20474;-73
2021/06/21 01:30:47;;;;;;;4.63;3.30;;;22.50;99.90;;;;;;5071110;28;20059;-74
2021/06/21 01:33:14;;;;;;;4.10;3.30;;;22.50;99.90;;;;;;5071230;28;20021;-73
2021/06/21 01:35:45;;;;;;;4.93;3.70;;;22.50;99.90;;;;;;5071000;28;20029;-74
2021/06/21 01:38:22;;;;;;;4.68;3.92;;;22.60;99.90;;;;;;5071256;28;20361;-72
2021/06/21 01:40:54;;;;;;;4.38;3.40;;;22.50;99.90;;;;;;5070809;28;20039;-72
2021/06/21 01:43:25;;;;;;;4.13;3.50;;;22.50;99.90;;;;;;5071244;28;20032;-73
2021/06/21 01:45:51;;;;;;;5.35;3.90;;;22.50;99.90;;;;;;5071362;28;20476;-73
2021/06/21 01:48:22;;;;;;;4.93;4.00;;;22.50;99.90;;;;;;5071138;28;20162;-74
2021/06/21 01:50:52;;;;;;;4.55;3.38;;;22.50;99.90;;;;;;5069824;28;20078;-74
2021/06/21 01:53:21;;;;;;;4.03;3.50;;;22.50;99.90;;;;;;5070673;28;20032;-74
2021/06/21 01:56:20;;;;;;;4.20;2.90;;;22.50;99.90;;;;;;5070036;28;20016;-74
2021/06/21 01:58:48;;;;;;;4.10;3.70;;;22.50;99.90;;;;;;5050583;28;20128;-73
2021/06/21 02:01:17;;;;;;;5.40;3.60;;;22.50;99.90;;;;;;5050885;28;20037;-75
2021/06/21 02:03:48;;;;;;;4.78;3.17;;;22.50;99.90;;;;;;5050705;28;20107;-75
2021/06/21 02:06:15;;;;;;;4.32;3.63;;;22.50;99.90;;;;;;5050910;28;20090;-74
2021/06/21 02:08:44;;;;;;;4.65;3.45;;;22.50;99.90;;;;;;5050571;28;20029;-76
2021/06/21 02:11:11;;;;;;;4.88;3.50;;;22.50;99.90;;;;;;5050901;28;20028;-74
2021/06/21 02:13:37;;;;;;;4.07;3.20;;;22.50;99.90;;;;;;5054867;28;20099;-72
2021/06/21 02:16:04;;;;;;;4.65;3.38;;;22.50;99.90;;;;;;5070886;28;20025;-74
2021/06/21 02:18:32;;;;;;;3.85;3.40;;;22.50;99.90;;;;;;5070504;28;20051;-73
2021/06/21 02:20:58;;;;;;;4.93;3.80;;;22.50;99.90;;;;;;5070697;28;20032;-73
2021/06/21 02:23:24;;;;;;;4.25;3.60;;;22.50;99.90;;;;;;5070580;28;20017;-71
2021/06/21 02:25:51;;;;;;;5.70;4.03;;;22.50;99.90;;;;;;5071236;28;20040;-74
2021/06/21 02:28:18;;;;;;;5.70;4.03;;;22.50;99.90;;;;;;5070496;28;20021;-71
2021/06/21 02:30:46;;;;;;;4.45;3.50;;;22.50;99.90;;;;;;5070429;28;20037;-73
2021/06/21 02:33:14;;;;;;;5.55;3.75;;;22.50;99.90;;;;;;5070693;28;20028;-73
2021/06/21 02:35:39;;;;;;;4.53;3.80;;;22.50;99.90;;;;;;5073598;28;20162;-72
2021/06/21 02:38:05;;;;;;;4.80;3.78;;;22.50;99.90;;;;;;5074084;28;20104;-74
2021/06/21 02:40:31;;;;;;;4.60;3.38;;;22.50;99.90;;;;;;5073804;28;20024;-72
2021/06/21 02:42:56;;;;;;;4.65;3.60;;;22.50;99.90;;;;;;5074169;28;20491;-71
2021/06/21 02:45:22;;;;;;;4.78;3.72;;;22.50;99.90;;;;;;5074059;28;20033;-71
2021/06/21 02:47:48;;;;;;;4.72;3.10;;;22.50;99.90;;;;;;5073728;28;20029;-71
2021/06/21 02:50:14;;;;;;;5.40;3.92;;;22.40;99.90;;;;;;5072872;28;20032;-71
2021/06/21 02:53:08;;;;;;;4.30;3.90;;;22.50;99.90;;;;;;5073720;28;20054;-71
2021/06/21 02:55:48;;;;;;;4.93;4.23;;;22.50;99.90;;;;;;5073744;28;20021;-75
2021/06/21 02:58:30;;;;;;;5.20;3.63;;;22.40;99.90;;;;;;5073728;28;20028;-72
2021/06/21 03:01:00;;;;;;;5.28;3.72;;;22.40;99.90;;;;;;5073644;28;20035;-72
2021/06/21 03:03:31;;;;;;;4.43;3.65;;;22.40;99.90;;;;;;5073538;28;20032;-72
2021/06/21 03:05:59;;;;;;;6.20;4.10;;;22.40;99.90;;;;;;5073762;28;20555;-77
2021/06/21 03:08:27;;;;;;;4.45;3.95;;;22.40;99.90;;;;;;5073471;28;20032;-76
2021/06/21 03:10:56;;;;;;;4.40;4.00;;;22.40;99.90;;;;;;5073804;28;20131;-74
2021/06/21 03:13:22;;;;;;;4.85;4.30;;;22.40;99.90;;;;;;5073546;28;20066;-73
2021/06/21 03:15:51;;;;;;;6.30;4.40;;;22.40;99.90;;;;;;5073088;28;20025;-75
2021/06/21 03:18:20;;;;;;;4.90;4.18;;;22.40;99.90;;;;;;5073193;28;20099;-75
2021/06/21 03:20:53;;;;;;;4.68;3.90;;;22.40;99.90;;;;;;5073104;28;20396;-73
2021/06/21 03:23:22;;;;;;;5.60;4.53;;;22.40;99.90;;;;;;5072457;28;20042;-72
2021/06/21 03:25:51;;;;;;;5.32;4.55;;;22.40;99.90;;;;;;5073054;28;20099;-73
2021/06/21 03:28:17;;;;;;;5.82;4.57;;;22.40;99.90;;;;;;5073478;28;20028;-75
2021/06/21 03:30:55;;;;;;;4.90;4.40;;;22.40;99.90;;;;;;5073000;28;20111;-73
2021/06/21 03:33:21;;;;;;;4.82;4.32;;;22.40;99.90;;;;;;5073625;28;20016;-77
2021/06/21 03:35:47;;;;;;;5.20;4.70;;;22.40;99.90;;;;;;5072872;28;20034;-73
2021/06/21 03:38:16;;;;;;;6.13;4.68;;;22.40;99.90;;;;;;5073072;28;20056;-73
2021/06/21 03:40:45;;;;;;;6.20;4.30;;;22.40;99.90;;;;;;5072593;28;20029;-72
2021/06/21 03:43:11;;;;;;;6.07;4.75;;;22.40;99.90;;;;;;5071534;28;20115;-70
2021/06/21 03:45:37;;;;;;;5.00;4.50;;;22.40;99.90;;;;;;5071199;28;20115;-73
2021/06/21 03:48:04;;;;;;;6.13;5.05;;;22.40;99.90;;;;;;5072675;28;20107;-75
2021/06/21 03:50:29;;;;;;;4.70;4.30;;;22.40;99.90;;;;;;5072586;28;20039;-73
2021/06/21 03:52:55;;;;;;;6.78;5.20;;;22.40;99.90;;;;;;5072886;28;20025;-72
2021/06/21 03:55:21;;;;;;;5.82;4.85;;;22.40;99.90;;;;;;5073103;28;20081;-73
2021/06/21 03:57:47;;;;;;;5.45;4.80;;;22.40;99.90;;;;;;5072453;28;20013;-74
2021/06/21 04:00:19;;;;;;;5.85;5.05;;;22.40;99.90;;;;;;5072578;28;20056;-71
2021/06/21 04:02:45;;;;;;;6.38;5.78;;;22.40;99.90;;;;;;5072365;28;20112;-71
2021/06/21 04:05:11;;;;;;;5.40;4.88;;;22.40;99.90;;;;;;5072526;28;20437;-72
2021/06/21 04:07:38;;;;;;;5.53;5.03;;;22.40;99.90;;;;;;5072186;28;20051;-71
2021/06/21 04:10:07;;;;;;;6.13;5.53;;;22.30;99.90;;;;;;5072358;28;20440;-74
2021/06/21 04:12:34;;;;;;;5.93;5.32;;;22.30;99.90;;;;;;5072152;28;20042;-76
2021/06/21 04:15:00;;;;;;;6.50;5.82;;;22.30;99.90;;;;;;5072030;28;20044;-73
2021/06/21 04:17:26;;;;;;;5.70;5.13;;;22.30;99.90;;;;;;5072038;28;20060;-75
2021/06/21 04:19:51;;;;;;;5.88;5.28;;;22.30;99.90;;;;;;5072518;28;20146;-74
2021/06/21 04:22:18;;;;;;;6.00;5.45;;;22.30;99.90;;;;;;5071740;28;20552;-76
2021/06/21 04:24:44;;;;;;;6.28;5.60;;;22.30;99.90;;;;;;5071367;28;20602;-74
2021/06/21 04:27:11;;;;;;;5.68;5.07;;;22.30;99.90;;;;;;5072141;28;20036;-74
2021/06/21 04:29:36;;;;;;;6.03;5.20;;;22.30;99.90;;;;;;5071823;28;20464;-72
2021/06/21 04:32:02;;;;;;;5.93;5.03;;;22.30;99.90;;;;;;5072067;28;20104;-73
2021/06/21 04:34:28;;;;;;;6.97;5.47;;;22.30;99.90;;;;;;5071902;28;20028;-73
2021/06/21 04:36:53;;;;;;;6.28;5.55;;;22.30;99.90;;;;;;5072015;28;20025;-73
2021/06/21 04:39:19;;;;;;;5.40;4.93;;;22.30;99.90;;;;;;5072175;28;20032;-73
2021/06/21 04:41:45;;;;;;;5.50;5.00;;;22.30;99.90;;;;;;5071541;28;20083;-71
2021/06/21 04:44:10;;;;;;;6.70;5.80;;;22.30;99.90;;;;;;5071547;28;20036;-71
2021/06/21 04:46:37;;;;;;;5.55;5.05;;;22.30;99.90;;;;;;5071575;28;20358;-71
2021/06/21 04:49:05;;;;;;;5.70;5.18;;;22.30;99.90;;;;;;5070406;28;20020;-72
2021/06/21 04:51:32;;;;;;;5.72;5.00;;;22.30;99.90;;;;;;5071374;28;20059;-72
2021/06/21 04:53:58;;;;;;;5.68;5.18;;;22.30;99.90;;;;;;5071636;28;20484;-72
2021/06/21 04:56:24;;;;;;;4.85;4.45;;;22.30;99.90;;;;;;5071413;28;20107;-72
2021/06/21 04:58:49;;;;;;;5.15;4.65;;;22.30;99.90;;;;;;5071947;28;20099;-71
2021/06/21 05:01:15;;;;;;;5.03;4.63;;;22.30;99.90;;;;;;5071177;28;20043;-72
2021/06/21 05:03:41;;;;;;;6.60;5.20;;;22.20;99.90;;;;;;5071585;28;20021;-73
2021/06/21 05:06:07;;;;;;;5.53;5.03;;;22.20;99.90;;;;;;5071529;28;20031;-71
2021/06/21 05:08:33;;;;;;;5.32;4.68;;;22.20;99.90;;;;;;5071017;28;20028;-71
2021/06/21 05:10:59;;;;;;;5.20;4.55;;;22.20;99.90;;;;;;5071425;28;20032;-72
2021/06/21 05:13:25;;;;;;;4.88;4.38;;;22.20;99.90;;;;;;5071250;28;20025;-71
2021/06/21 05:15:50;;;;;;;4.82;4.32;;;22.20;99.90;;;;;;5070534;28;20074;-71
2021/06/21 05:18:16;;;;;;;4.88;4.22;;;22.20;99.90;;;;;;5071396;28;20023;-72
2021/06/21 05:20:42;;;;;;;4.75;4.30;;;22.20;99.90;;;;;;5071056;28;20464;-71
2021/06/21 05:23:08;;;;;;;4.47;4.07;;;22.20;99.90;;;;;;5071393;28;20146;-73
2021/06/21 05:25:34;;;;;;;5.18;3.97;;;22.20;99.90;;;;;;5071436;28;20436;-72
2021/06/21 05:28:01;;;;;;;4.72;4.32;;;22.20;99.90;;;;;;5071534;28;20029;-72
2021/06/21 05:30:27;;;;;;;3.72;3.42;;;22.20;99.90;;;;;;5071111;28;20089;-72
2021/06/21 05:32:53;;;;;;;3.78;3.47;;;22.20;99.90;;;;;;5070292;28;20017;-71
2021/06/21 05:35:20;;;;;;;4.20;3.80;;;22.20;99.90;;;;;;5071179;28;20035;-73
2021/06/21 05:37:46;;;;;;;4.13;3.72;;;22.20;99.90;;;;;;5070964;28;20062;-75
2021/06/21 05:40:13;;;;;;;5.85;3.58;;;22.20;99.90;;;;;;5069943;28;20086;-73
2021/06/21 05:42:39;;;;;;;4.47;3.50;;;22.20;99.90;;;;;;5070588;28;20078;-72
2021/06/21 05:45:05;;;;;;;4.03;3.63;;;22.20;99.90;;;;;;5071142;28;20025;-71
2021/06/21 05:47:30;;;;;;;3.58;2.80;;;22.20;99.90;;;;;;5069582;28;20021;-71
2021/06/21 05:49:56;;;;;;;3.42;3.13;;;22.20;99.90;;;;;;5071158;28;20039;-71
2021/06/21 05:52:22;;;;;;;3.30;3.00;;;22.20;99.90;;;;;;5071382;28;20052;-73
2021/06/21 05:54:48;;;;;;;3.13;2.90;;;22.20;99.90;;;;;;5070843;28;20024;-71
2021/06/21 05:57:13;;;;;;;3.20;2.90;;;22.20;99.90;;;;;;5071011;28;20600;-71
2021/06/21 05:59:39;;;;;;;3.00;2.80;;;22.20;99.90;;;;;;5070537;28;20033;-71
2021/06/21 06:02:04;;;;;;;4.15;3.30;;;22.20;99.90;;;;;;5071942;28;20514;-72
2021/06/21 06:04:30;;;;;;;3.42;3.03;;;22.20;99.90;;;;;;5070911;28;20119;-71
2021/06/21 06:06:56;;;;;;;3.00;2.70;;;22.20;99.90;;;;;;5070921;28;20386;-71
2021/06/21 06:09:22;;;;;;;3.25;2.90;;;22.10;99.90;;;;;;5071970;28;20162;-71
2021/06/21 06:11:48;;;;;;;3.35;3.05;;;22.10;99.90;;;;;;5080885;28;20031;-71
2021/06/21 06:14:15;;;;;;;3.25;2.95;;;22.10;99.90;;;;;;5074994;28;20021;-72
2021/06/21 06:16:40;;;;;;;3.05;2.67;;;22.20;99.90;;;;;;5075141;28;20037;-75
2021/06/21 06:19:06;;;;;;;3.05;2.75;;;22.20;99.90;;;;;;5090877;28;20039;-73
2021/06/21 06:21:32;;;;;;;2.95;2.65;;;22.20;99.90;;;;;;5092363;28;20048;-73
2021/06/21 06:23:58;;;;;;;4.53;3.20;;;22.20;99.90;;;;;;5088544;28;20059;-69
2021/06/21 06:26:24;;;;;;;3.08;2.47;;;22.20;99.90;;;;;;5095034;28;20024;-73
2021/06/21 06:28:49;;;;;;;3.83;2.75;;;22.20;99.90;;;;;;5094986;28;20028;-72
2021/06/21 06:31:15;;;;;;;3.75;3.45;;;22.20;99.90;;;;;;5094412;28;20115;-75
2021/06/21 06:33:40;;;;;;;5.15;3.47;;;22.20;99.90;;;;;;5076692;28;20435;-72
2021/06/21 06:36:06;;;;;;;3.70;3.35;;;22.10;99.90;;;;;;5092185;28;20054;-72
2021/06/21 06:38:32;;;;;;;4.43;3.58;;;22.10;99.90;;;;;;5075098;28;20020;-74
2021/06/21 06:41:01;;;;;;;4.53;3.50;;;22.10;99.90;;;;;;5074060;28;20032;-73
2021/06/21 06:43:26;;;;;;;3.70;3.40;;;22.10;99.90;;;;;;5076876;28;20029;-72
2021/06/21 06:45:52;;;;;;;4.35;3.90;;;22.10;99.90;;;;;;5073963;28;20082;-76
2021/06/21 06:48:18;;;;;;;5.38;3.90;;;22.10;99.90;;;;;;5076154;28;20028;-72
2021/06/21 06:50:43;;;;;;;4.10;3.75;;;22.10;99.90;;;;;;5072359;28;20025;-73
2021/06/21 06:53:09;;;;;;;5.45;3.67;;;22.10;99.90;;;;;;5072642;28;20033;-73
2021/06/21 06:58:18;;;;;;;4.50;4.10;;;22.10;99.90;;;;;;5073419;28;20063;-71
2021/06/21 07:00:44;;;;;;;4.15;3.78;;;22.10;99.90;;;;;;5071254;28;20096;-73
2021/06/21 07:03:10;;;;;;;4.47;4.07;;;22.10;99.90;;;;;;5079800;28;20036;-72
2021/06/21 07:05:36;;;;;;;5.03;4.43;;;22.00;99.90;;;;;;5074492;28;20070;-73
2021/06/21 07:08:02;;;;;;;4.70;4.25;;;22.00;99.90;;;;;;5072144;28;20468;-73
2021/06/21 07:10:28;;;;;;;4.60;4.20;;;22.00;99.90;;;;;;5071961;28;20428;-73
2021/06/21 07:12:54;;;;;;;5.00;4.35;;;22.00;99.90;;;;;;5072423;28;20024;-73
2021/06/21 07:15:19;;;;;;;4.90;4.40;;;22.00;99.90;;;;;;5073721;28;20027;-77
2021/06/21 07:17:45;;;;;;;5.00;4.50;;;22.00;99.90;;;;;;5073440;28;20476;-74
2021/06/21 07:20:12;;;;;;;5.20;4.78;;;22.00;99.90;;;;;;5072467;28;20089;-71
2021/06/21 07:22:37;;;;;;;5.25;4.65;;;22.00;99.90;;;;;;5069953;28;20029;-72
2021/06/21 07:25:04;;;;;;;4.85;4.45;;;22.00;99.90;;;;;;5073040;28;20374;-71
2021/06/21 07:27:30;;;;;;;5.63;4.68;;;22.00;99.90;;;;;;5074117;28;20488;-71
2021/06/21 07:29:56;;;;;;;5.30;4.32;;;22.00;99.90;;;;;;5071605;28;20020;-72
2021/06/21 07:32:22;;;;;;;6.82;4.60;;;22.10;99.90;;;;;;5071905;28;20582;-71
2021/06/21 07:34:48;;;;;;;4.40;3.70;;;22.10;99.90;;;;;;5070371;28;20095;-74
2021/06/21 07:37:13;;;;;;;4.13;3.70;;;22.10;99.90;;;;;;5071726;28;20027;-72
2021/06/21 07:39:39;;;;;;;4.68;4.07;;;22.20;99.90;;;;;;5072836;28;20024;-70
2021/06/21 07:42:05;;;;;;;4.65;4.25;;;22.10;99.90;;;;;;5072910;28;20048;-72
2021/06/21 07:44:31;;;;;;;4.72;4.20;;;22.10;99.90;;;;;;5073733;28;20027;-74
2021/06/21 07:46:56;;;;;;;5.35;4.93;;;22.20;99.90;;;;;;5074204;28;20534;-73
2021/06/21 07:49:22;;;;;;;5.05;4.60;;;22.20;99.90;;;;;;5073052;28;20666;-72
2021/06/21 07:51:48;;;;;;;4.75;4.30;;;22.20;99.90;;;;;;5072595;28;20036;-72
2021/06/21 07:54:14;;;;;;;4.82;4.32;;;22.20;99.90;;;;;;5072846;28;20027;-69
2021/06/21 07:56:41;;;;;;;4.70;4.18;;;22.20;99.90;;;;;;5071276;28;20024;-72
2021/06/21 07:59:06;;;;;;;4.60;4.20;;;22.20;99.90;;;;;;5072506;28;20103;-70
2021/06/21 08:01:32;;;;;;;4.60;4.03;;;22.30;99.90;;;;;;5078452;28;20552;-69
2021/06/21 08:03:58;;;;;;;6.47;4.15;;;22.20;99.90;;;;;;5078536;28;20031;-71
2021/06/21 08:06:24;;;;;;;4.50;4.10;;;22.30;99.90;;;;;;5074605;28;20089;-73
2021/06/21 08:08:50;;;;;;;5.88;4.22;;;22.30;99.90;;;;;;5072849;28;20104;-71
2021/06/21 08:11:16;;;;;;;5.95;3.95;;;22.40;99.90;;;;;;5074176;28;20540;-71
2021/06/21 08:13:41;;;;;;;4.03;3.70;;;22.40;99.90;;;;;;5090702;28;20149;-76
2021/06/21 08:16:08;;;;;;;4.00;3.70;;;22.50;99.90;;;;;;5092873;28;20494;-76
2021/06/21 08:18:33;;;;;;;4.72;3.50;;;22.50;99.90;;;;;;5091810;28;20027;-73
2021/06/21 08:21:00;;;;;;;4.30;3.65;;;22.60;99.90;;;;;;5072056;28;20032;-74
2021/06/21 08:23:26;;;;;;;4.20;3.80;;;22.60;99.90;;;;;;5072035;28;20028;-75
2021/06/21 08:25:51;;;;;;;3.90;3.60;;;22.60;99.90;;;;;;5072404;28;20025;-74
2021/06/21 08:28:20;;;;;;;5.03;3.70;;;22.60;99.90;;;;;;5072153;28;20028;-73
2021/06/21 08:30:48;;;;;;;3.90;3.60;;;22.60;99.90;;;;;;5072795;28;20103;-74
2021/06/21 08:33:13;;;;;;;4.63;3.92;;;22.70;99.90;;;;;;5051789;28;20029;-72
2021/06/21 08:35:39;;;;;;;4.22;3.70;;;22.70;99.90;;;;;;5053245;28;20468;-74
2021/06/21 08:38:05;;;;;;;4.72;4.40;;;22.70;99.90;;;;;;5052089;28;20038;-73
2021/06/21 08:40:33;;;;;;;4.07;3.78;;;22.70;99.90;;;;;;5063513;28;20559;-75
2021/06/21 08:42:59;;;;;;;4.05;3.75;;;22.80;99.90;;;;;;5076599;28;20041;-77
2021/06/21 08:45:28;;;;;;;4.47;3.83;;;22.80;99.90;;;;;;5071669;28;20078;-75
2021/06/21 08:47:55;;;;;;;4.60;4.20;;;22.80;99.90;;;;;;5071910;28;20073;-72
2021/06/21 08:50:21;;;;;;;4.38;3.97;;;22.80;99.90;;;;;;5071541;28;20020;-73
2021/06/21 08:52:47;;;;;;;5.55;4.40;;;22.80;99.90;;;;;;5070994;28;20036;-72
2021/06/21 08:55:14;;;;;;;4.63;4.22;;;22.90;99.90;;;;;;5071738;28;20028;-74
2021/06/21 08:57:47;;;;;;;6.13;4.00;;;22.90;99.90;;;;;;5088553;28;20032;-74
2021/06/21 09:00:15;;;;;;;4.80;4.40;;;22.90;99.90;;;;;;5077905;28;20029;-75
2021/06/21 09:02:41;;;;;;;5.65;4.20;;;22.90;99.90;;;;;;5071297;28;20097;-76
2021/06/21 09:05:11;;;;;;;4.22;3.92;;;23.00;99.90;;;;;;5071543;28;20115;-75
2021/06/21 09:07:38;;;;;;;4.53;4.22;;;23.00;99.90;;;;;;5071205;28;20472;-76
2021/06/21 09:10:22;;;;;;;4.47;4.07;;;23.00;99.90;;;;;;5071436;28;20037;-75
2021/06/21 09:12:59;;;;;;;4.75;4.35;;;23.00;99.90;;;;;;5071337;28;20024;-76
2021/06/21 09:15:33;;;;;;;5.05;4.03;;;23.00;99.90;;;;;;5071538;28;20044;-76
2021/06/21 09:18:00;;;;;;;;;;;23.10;99.90;;;;;;5051924;28;20017;-75
2021/06/21 09:20:27;;;;;;;5.05;4.53;;;23.10;99.90;;;;;;5050947;28;19920;-71
2021/06/21 09:22:56;;;;;;;4.60;4.20;;;23.10;99.90;;;;;;5051733;28;20021;-74
2021/06/21 09:25:25;;;;;;;5.22;4.70;;;23.10;99.90;;;;;;5051849;28;20025;-70
2021/06/21 09:27:56;;;;;;;4.95;4.55;;;23.10;99.90;;;;;;5051824;28;20108;-76
2021/06/21 09:30:22;;;;;;;4.80;4.40;;;23.10;99.90;;;;;;5066345;28;20074;-73
2021/06/21 09:32:53;;;;;;;4.55;4.20;;;23.20;99.90;;;;;;5091236;28;20123;-73
2021/06/21 09:35:31;;;;;;;4.97;4.57;;;23.20;99.90;;;;;;5091827;28;20028;-74
2021/06/21 09:38:19;;;;;;;5.57;5.03;;;23.20;99.90;;;;;;5086246;28;20066;-73
2021/06/21 09:40:47;;;;;;;4.95;4.55;;;23.20;99.90;;;;;;5070661;28;20760;-72
2021/06/21 09:43:29;;;;;;;5.70;5.18;;;23.30;99.90;;;;;;5072655;28;20362;-74
2021/06/21 09:46:09;;;;;;;5.30;4.80;;;23.30;99.90;;;;;;5074287;28;20379;-73
2021/06/21 09:48:56;;;;;;;5.10;4.70;;;23.30;99.90;;;;;;5075092;28;20028;-71
2021/06/21 09:51:35;;;;;;;5.57;4.75;;;23.30;99.90;;;;;;5074361;28;20131;-77
2021/06/21 09:54:14;;;;;;;5.10;4.60;;;23.30;99.90;;;;;;5080837;28;20036;-74
2021/06/21 09:56:51;;;;;;;5.43;4.78;;;23.30;99.90;;;;;;5074574;28;20028;-73
2021/06/21 09:59:25;;;;;;;5.55;5.10;;;23.30;99.90;;;;;;5075017;28;20028;-72
2021/06/21 10:02:14;;;;;;;5.43;5.03;;;23.30;99.90;;;;;;5054944;28;20374;-72
2021/06/21 10:04:42;;;;;;;4.82;4.43;;;23.30;99.90;;;;;;5058885;28;20021;-72
2021/06/21 10:07:35;;;;;;;5.00;4.60;;;23.40;99.90;;;;;;5074582;28;20032;-76
2021/06/21 10:10:01;;;;;;;5.30;4.80;;;23.40;99.90;;;;;;5074648;28;20484;-71
2021/06/21 10:12:27;;;;;;;5.32;4.93;;;23.40;99.90;;;;;;5074170;28;20032;-73
2021/06/21 10:14:54;;;;;;;5.13;4.70;;;23.30;99.90;;;;;;5073687;28;20436;-77
2021/06/21 10:17:21;;;;;;;5.18;4.68;;;23.20;99.90;;;;;;5073375;28;20415;-73
2021/06/21 10:19:46;;;;;;;4.70;4.30;;;23.20;99.90;;;;;;5073962;28;20699;-74
2021/06/21 10:22:12;;;;;;;4.25;3.95;;;23.20;99.90;;;;;;5064721;28;20099;-74
2021/06/21 10:24:38;;;;;;;4.50;4.03;;;23.10;99.90;;;;;;5072855;28;20530;-71
2021/06/21 10:27:06;;;;;;;4.13;3.80;;;23.10;99.90;;;;;;5074120;28;20016;-77
2021/06/21 10:29:33;;;;;;;4.30;3.90;;;23.00;99.90;;;;;;5077424;28;20027;-73
2021/06/21 10:32:03;;;;;;;4.22;3.88;;;23.00;99.90;;;;;;5073035;28;20472;-78
2021/06/21 10:34:29;;;;;;;4.35;3.92;;;22.90;99.90;;;;;;5072850;28;20020;-83
2021/06/21 10:36:57;;;;;;;4.10;3.80;;;23.00;99.90;;;;;;5074493;28;20024;-82
2021/06/21 10:39:26;;;;;;;4.05;3.75;;;22.90;99.90;;;;;;5077869;28;20020;-81
2021/06/21 10:42:04;;;;;;;5.40;3.60;;;22.90;99.90;;;;;;5073759;28;20046;-74
2021/06/21 10:44:58;;;;;;;3.83;3.53;;;22.90;99.90;;;;;;5072318;28;20028;-79
2021/06/21 10:47:42;;;;;;;4.10;3.80;;;22.90;99.90;;;;;;5060579;28;20044;-74
2021/06/21 10:50:18;;;;;;;6.30;3.42;;;22.90;99.90;;;;;;5071113;28;20031;-75
2021/06/21 10:52:53;;;;;;;4.03;3.63;;;22.90;99.90;;;;;;5074023;28;20063;-73
2021/06/21 10:55:21;;;;;;;5.35;3.67;;;22.90;99.90;;;;;;5073033;28;20495;-78
2021/06/21 10:58:23;;;;;;;4.00;3.70;;;22.90;99.90;;;;;;5073898;28;20024;-74
2021/06/21 11:00:51;;;;;;;4.07;3.33;;;22.90;99.90;;;;;;5073566;28;20062;-76
2021/06/21 11:03:26;;;;;;;4.35;3.97;;;22.90;99.90;;;;;;5076820;28;20491;-81
2021/06/21 11:05:54;;;;;;;4.15;3.75;;;22.90;99.90;;;;;;5054312;28;20025;-75
2021/06/21 11:08:28;;;;;;;4.78;4.30;;;22.90;99.90;;;;;;5053909;28;20067;-82
2021/06/21 11:10:58;;;;;;;4.22;3.83;;;22.90;99.90;;;;;;5055337;28;20040;-72
2021/06/21 11:13:44;;;;;;;4.75;4.35;;;22.90;99.90;;;;;;5077525;28;20052;-77
2021/06/21 11:16:19;;;;;;;4.63;4.05;;;22.90;99.90;;;;;;5073085;28;20396;-85
2021/06/21 11:18:47;;;;;;;5.00;4.00;;;22.90;99.90;;;;;;5082983;28;20035;-83
2021/06/21 11:21:23;;;;;;;4.68;4.22;;;22.90;99.90;;;;;;5074151;28;20025;-84
2021/06/21 11:23:53;;;;;;;4.53;4.13;;;22.90;99.90;;;;;;5072696;28;20032;-83
2021/06/21 11:26:19;;;;;;;5.60;4.20;;;22.90;99.90;;;;;;5069914;28;20027;-84
2021/06/21 11:28:46;;;;;;;5.18;4.68;;;22.90;99.90;;;;;;5073097;28;20106;-82
2021/06/21 11:31:18;;;;;;;5.10;4.60;;;22.80;99.90;;;;;;5076651;28;20082;-82
2021/06/21 11:33:52;;;;;;;4.65;4.20;;;22.90;99.90;;;;;;5071849;28;20048;-83
2021/06/21 11:36:37;;;;;;;6.97;4.43;;;22.80;99.90;;;;;;5082481;28;20020;-82
2021/06/21 11:39:24;;;;;;;4.40;4.00;;;22.80;99.90;;;;;;5079038;28;20023;-84
2021/06/21 11:42:00;;;;;;;8.75;4.40;;;22.80;99.90;;;;;;5073014;28;20035;-82
2021/06/21 11:47:20;;;;;;;5.93;4.22;;;22.70;99.90;;;;;;5053268;28;20052;-83
2021/06/21 11:49:47;;;;;;;5.93;4.70;;;22.70;99.90;;;;;;5051366;28;20029;-80
2021/06/21 11:52:21;;;;;;;4.88;4.07;;;22.80;99.90;;;;;;5052850;28;20112;-81
2021/06/21 11:54:49;;;;;;;6.60;4.15;;;22.80;99.90;;;;;;5052661;28;20017;-81
2021/06/21 11:57:16;;;;;;;5.72;4.30;;;22.80;99.90;;;;;;5070832;28;20417;-82
2021/06/21 11:59:44;;;;;;;6.88;4.25;;;22.70;99.90;;;;;;5071752;28;20024;-83
2021/06/21 12:02:22;;;;;;;5.53;3.83;;;22.80;99.90;;;;;;5071844;28;20114;-79
2021/06/21 12:04:50;;;;;;;5.60;3.95;;;22.80;99.90;;;;;;5072530;28;20025;-83
2021/06/21 12:07:36;;;;;;;4.72;3.50;;;22.80;99.90;;;;;;5073004;28;20032;-78
2021/06/21 12:10:12;;;;;;;4.60;3.63;;;22.80;99.90;;;;;;5072124;28;20036;-79
2021/06/21 12:12:39;;;;;;;7.70;4.07;;;22.80;99.90;;;;;;5073102;28;20056;-80
2021/06/21 12:15:07;;;;;;;4.22;3.80;;;22.80;99.90;;;;;;5072421;28;20020;-78
2021/06/21 12:17:33;;;;;;;4.32;3.33;;;22.90;99.90;;;;;;5072138;28;20032;-85
2021/06/21 12:20:18;;;;;;;5.50;4.00;;;22.90;99.90;;;;;;5072398;28;20024;-82
2021/06/21 12:22:57;;;;;;;4.18;3.78;;;22.90;99.90;;;;;;5072238;28;20386;-82
2021/06/21 12:25:29;;;;;;;4.97;4.03;;;22.90;99.90;;;;;;5075626;28;20059;-79
2021/06/21 12:28:21;;;;;;;3.88;3.53;;;22.90;99.90;;;;;;5071779;28;20111;-82
2021/06/21 12:30:53;;;;;;;5.32;3.90;;;22.90;99.90;;;;;;5071995;28;20025;-78
2021/06/21 12:33:24;;;;;;;5.68;3.40;;;22.90;99.90;;;;;;5072284;28;20045;-73
2021/06/21 12:36:11;;;;;;;7.00;3.72;;;22.90;99.90;;;;;;5072292;28;20035;-75
2021/06/21 12:38:50;;;;;;;5.18;3.85;;;22.80;99.90;;;;;;5070491;28;20120;-76
2021/06/21 12:41:17;;;;;;;6.00;3.60;;;22.90;99.90;;;;;;5071899;28;20132;-74
2021/06/21 12:43:57;;;;;;;4.85;3.78;;;22.80;99.90;;;;;;5071698;28;20472;-80
2021/06/21 12:46:26;;;;;;;5.03;3.17;;;22.80;99.90;;;;;;5072118;28;20086;-81
2021/06/21 12:48:53;;;;;;;4.80;3.55;;;22.90;99.90;;;;;;5072181;28;20078;-74
2021/06/21 12:51:20;;;;;;;5.75;3.47;;;22.80;99.90;;;;;;5072043;28;20112;-73
2021/06/21 12:53:51;;;;;;;5.03;3.38;;;22.80;99.90;;;;;;5070377;28;20020;-81
2021/06/21 12:56:22;;;;;;;3.65;3.28;;;22.80;99.90;;;;;;5071807;28;20020;-82
2021/06/21 12:58:48;;;;;;;3.92;3.53;;;22.90;99.90;;;;;;5071584;28;20019;-71
2021/06/21 13:01:28;;;;;;;5.00;3.00;;;22.90;99.90;;;;;;5071861;28;20032;-82
2021/06/21 13:03:55;;;;;;;5.05;3.53;;;22.90;99.90;;;;;;5071846;28;20016;-76